Time;durP1;ratioP1;P1;durP2;ratioP2;P2;SDS_P1;SDS_P2;PMS_P1;PMS_P2;Temp;Humidity;BMP_temperature;BMP_pressure;BME280_temperature;BME280_humidity;BME280_pressure;Samples;Min_cycle;Max_cycle;Signal;HPM_P1;HPM_P2
2024/03/22 00:06:19;;;;;;;0.43;0.35;;;;;;;7.37;77.98;101677.75;15554202;28;20038;-52
2024/03/22 00:13:54;;;;;;;3.75;1.00;;;;;;;7.41;80.36;101669.25;15545420;28;20464;-52
2024/03/22 00:21:29;;;;;;;0.10;0.10;;;;;;;7.96;77.02;101656.16;15549714;28;20092;-52
2024/03/22 00:29:08;;;;;;;0.75;0.75;;;;;;;8.04;76.42;101648.97;15552893;28;20045;-53
2024/03/22 00:36:41;;;;;;;0.57;0.57;;;;;;;7.81;77.30;101638.16;15544566;28;20038;-55
2024/03/22 00:44:16;;;;;;;2.55;1.00;;;;;;;7.61;79.62;101624.31;15530523;28;20042;-51
2024/03/22 00:51:50;;;;;;;0.00;0.00;;;;;;;7.82;78.59;101617.59;15542548;28;20058;-55
2024/03/22 00:59:25;;;;;;;0.22;0.20;;;;;;;7.45;79.57;101623.50;15541644;28;20050;-52
2024/03/22 01:06:58;;;;;;;0.32;0.25;;;;;;;7.35;81.31;101615.66;15542859;28;20053;-51
2024/03/22 01:14:33;;;;;;;0.20;0.10;;;;;;;7.74;79.85;101593.56;15551612;28;20049;-53
2024/03/22 01:22:07;;;;;;;0.52;0.52;;;;;;;7.48;81.28;101594.63;15542428;28;20053;-53
2024/03/22 01:29:42;;;;;;;0.00;0.00;;;;;;;7.62;81.08;101587.75;15533518;28;20100;-53
2024/03/22 01:37:16;;;;;;;0.00;0.00;;;;;;;7.83;80.18;101581.84;15547656;28;20354;-53
2024/03/22 01:44:53;;;;;;;0.68;0.30;;;;;;;7.91;80.11;101579.16;15553794;28;20620;-52
2024/03/22 01:52:27;;;;;;;0.38;0.38;;;;;;;7.96;80.66;101558.06;15560522;28;20049;-51
2024/03/22 02:00:02;;;;;;;0.00;0.00;;;;;;;7.72;80.45;101555.50;15555682;28;20076;-54
2024/03/22 02:07:37;;;;;;;0.52;0.52;;;;;;;7.93;80.68;101558.44;15560227;28;20490;-53
2024/03/22 02:15:12;;;;;;;1.40;0.95;;;;;;;7.92;80.83;101540.72;15538779;28;20339;-51
2024/03/22 02:22:46;;;;;;;0.55;0.55;;;;;;;7.92;80.76;101538.88;15561113;28;20038;-51
2024/03/22 02:30:21;;;;;;;0.32;0.32;;;;;;;7.90;79.98;101527.53;15557219;28;20069;-55
2024/03/22 02:37:56;;;;;;;0.00;0.00;;;;;;;7.57;81.72;101515.28;15556441;28;20100;-55
2024/03/22 02:45:32;;;;;;;0.82;0.82;;;;;;;8.04;80.08;101507.25;15551016;28;20049;-53
2024/03/22 02:53:06;;;;;;;0.10;0.10;;;;;;;7.85;80.89;101505.00;15558117;28;20046;-56
2024/03/22 03:00:46;;;;;;;0.77;0.77;;;;;;;7.80;80.33;101488.66;15555218;28;20506;-52
2024/03/22 03:08:20;;;;;;;0.08;0.08;;;;;;;7.47;81.10;101482.59;15557661;28;20430;-53
2024/03/22 03:15:55;;;;;;;2.10;1.85;;;;;;;7.56;81.60;101460.19;15552586;28;20048;-52
2024/03/22 03:23:29;;;;;;;0.45;0.45;;;;;;;7.52;81.61;101454.38;15546685;28;20048;-51
2024/03/22 03:31:05;;;;;;;0.88;0.88;;;;;;;7.62;80.79;101440.81;15523816;28;20643;-51
2024/03/22 03:38:39;;;;;;;1.25;0.80;;;;;;;7.42;81.00;101400.31;15537368;28;20057;-52
2024/03/22 03:46:14;;;;;;;0.20;0.20;;;;;;;7.28;82.43;101401.03;15541802;28;20038;-52
2024/03/22 03:53:49;;;;;;;0.13;0.13;;;;;;;7.19;82.30;101391.41;15556412;28;20116;-52
2024/03/22 04:01:24;;;;;;;1.67;0.32;;;;;;;7.25;82.07;101378.19;15556131;28;20556;-51
2024/03/22 04:08:58;;;;;;;0.28;0.20;;;;;;;6.95;82.41;101318.41;15547364;28;20156;-52
2024/03/22 04:16:33;;;;;;;0.65;0.65;;;;;;;7.41;81.74;101345.22;15560496;28;20054;-52
2024/03/22 04:24:07;;;;;;;0.25;0.25;;;;;;;7.45;80.58;101343.88;15398862;23;20047;-49
2024/03/22 04:31:45;;;;;;;0.55;0.55;;;;;;;7.61;79.95;101341.13;15267503;28;20036;-48
2024/03/22 04:39:21;;;;;;;11.27;0.90;;;;;;;7.77;80.20;101323.31;15279061;28;20119;-51
2024/03/22 04:46:56;;;;;;;0.95;0.95;;;;;;;7.97;79.21;101319.16;15295796;28;20496;-55
2024/03/22 04:54:30;;;;;;;0.03;0.03;;;;;;;7.67;78.92;101324.38;15295886;28;20050;-50
2024/03/22 05:02:06;;;;;;;0.68;0.68;;;;;;;7.98;78.06;101309.31;15287936;28;20051;-52
2024/03/22 05:09:40;;;;;;;0.80;0.80;;;;;;;7.65;79.04;101302.34;15296906;28;20040;-52
2024/03/22 05:17:16;;;;;;;0.00;0.00;;;;;;;7.85;78.58;101297.38;15295598;28;20439;-48
2024/03/22 05:24:49;;;;;;;0.00;0.00;;;;;;;7.57;79.27;101305.06;15295778;29;20054;-50
2024/03/22 05:32:25;;;;;;;0.20;0.20;;;;;;;8.02;77.74;101298.09;15294007;28;20142;-52
2024/03/22 05:39:59;;;;;;;2.50;0.75;;;;;;;8.11;77.87;101283.63;15292855;28;20055;-52
2024/03/22 05:47:37;;;;;;;0.50;0.50;;;;;;;7.99;77.63;101274.38;15294492;28;20130;-49
2024/03/22 05:55:19;;;;;;;0.30;0.20;;;;;;;8.11;77.89;101258.72;15276610;28;20048;-51
2024/03/22 06:02:56;;;;;;;0.20;0.20;;;;;;;8.36;76.69;101254.84;15291022;28;20484;-52
2024/03/22 06:10:30;;;;;;;0.65;0.55;;;;;;;8.34;76.83;101251.47;15287384;28;20059;-52
2024/03/22 06:18:05;;;;;;;0.40;0.40;;;;;;;8.46;76.25;101251.88;15294335;28;20047;-51
2024/03/22 06:25:39;;;;;;;3.25;2.13;;;;;;;8.24;76.94;101245.56;15294581;28;20441;-52
2024/03/22 06:33:14;;;;;;;1.48;0.93;;;;;;;8.01;78.11;101218.03;15300296;28;20052;-52
2024/03/22 06:40:48;;;;;;;0.45;0.45;;;;;;;8.30;76.97;101223.44;15301833;28;20047;-51
2024/03/22 06:48:23;;;;;;;0.38;0.25;;;;;;;8.57;75.76;101208.59;15304255;28;20456;-53
2024/03/22 06:55:57;;;;;;;2.08;1.30;;;;;;;8.66;76.33;101206.66;15302697;28;20098;-53
2024/03/22 07:03:33;;;;;;;0.68;0.30;;;;;;;8.64;75.73;101204.19;15303520;28;20131;-50
2024/03/22 07:11:08;;;;;;;0.00;0.00;;;;;;;8.77;74.91;101200.84;15290339;28;20149;-54
2024/03/22 07:18:43;;;;;;;1.70;1.42;;;;;;;8.75;74.97;101196.69;15289865;28;20047;-51
2024/03/22 07:26:17;;;;;;;8.07;0.65;;;;;;;9.09;74.73;101188.03;15301695;28;20054;-52
2024/03/22 07:33:53;;;;;;;0.50;0.50;;;;;;;9.48;73.62;101192.16;15297245;28;20049;-51
2024/03/22 07:41:27;;;;;;;1.60;0.93;;;;;;;9.30;73.81;101190.72;15297470;28;20503;-51
2024/03/22 07:49:04;;;;;;;1.13;1.02;;;;;;;9.45;73.35;101178.09;15298061;28;20067;-55
2024/03/22 07:56:38;;;;;;;0.55;0.55;;;;;;;9.23;74.36;101178.28;15300067;28;20117;-52
2024/03/22 08:04:14;;;;;;;2.55;1.08;;;;;;;9.52;73.35;101170.13;15300656;28;20040;-54
2024/03/22 08:11:48;;;;;;;1.60;0.50;;;;;;;9.63;72.92;101160.72;15299800;28;20074;-52
2024/03/22 08:19:25;;;;;;;5.40;1.35;;;;;;;10.10;72.32;101159.22;15291925;28;20131;-52
2024/03/22 08:27:03;;;;;;;1.40;1.30;;;;;;;9.97;72.15;101151.91;15329398;28;20055;-53
2024/03/22 08:34:39;;;;;;;1.77;1.42;;;;;;;9.94;72.48;101147.78;15290358;28;20127;-54
2024/03/22 08:42:13;;;;;;;0.35;0.35;;;;;;;10.34;71.46;101125.75;15297934;28;20508;-52
2024/03/22 08:49:48;;;;;;;0.30;0.25;;;;;;;10.32;71.39;101119.75;15297961;28;20142;-51
2024/03/22 08:57:23;;;;;;;0.47;0.47;;;;;;;10.19;71.50;101107.06;15293424;28;20483;-51
2024/03/22 09:05:00;;;;;;;1.05;0.50;;;;;;;10.21;71.30;101087.06;15297265;28;20052;-52
2024/03/22 09:12:36;;;;;;;0.00;0.00;;;;;;;10.38;71.07;101078.69;15295756;28;20154;-50
2024/03/22 09:20:12;;;;;;;1.05;0.98;;;;;;;11.44;68.15;101076.19;15286649;28;20381;-52
2024/03/22 09:27:49;;;;;;;0.98;0.60;;;;;;;11.23;67.76;101055.72;15294679;28;20436;-51
2024/03/22 09:35:26;;;;;;;0.50;0.50;;;;;;;11.83;65.91;101056.50;15293436;28;20047;-53
2024/03/22 09:43:04;;;;;;;0.70;0.65;;;;;;;11.62;66.08;101072.88;15294909;29;20051;-53
2024/03/22 09:50:39;;;;;;;0.40;0.40;;;;;;;11.45;67.38;101067.09;15273788;28;20044;-53
2024/03/22 09:58:16;;;;;;;1.00;0.60;;;;;;;11.81;66.26;101041.59;15293074;28;20056;-54
2024/03/22 10:05:51;;;;;;;0.52;0.52;;;;;;;11.45;67.62;101042.91;15296734;28;20051;-50
2024/03/22 10:13:26;;;;;;;1.30;0.75;;;;;;;12.09;66.12;101026.03;15304728;28;20067;-50
2024/03/22 10:21:02;;;;;;;1.48;1.38;;;;;;;12.41;65.71;101018.00;15305070;28;20048;-54
2024/03/22 10:28:36;;;;;;;0.10;0.10;;;;;;;12.47;63.69;101014.44;15303809;28;20110;-49
2024/03/22 10:36:13;;;;;;;3.20;1.67;;;;;;;12.89;62.22;100998.63;15301117;28;20493;-51
2024/03/22 10:43:47;;;;;;;1.13;0.70;;;;;;;13.25;62.08;101003.34;15300840;28;20467;-54
2024/03/22 10:51:24;;;;;;;3.30;0.98;;;;;;;13.41;59.96;100991.97;15302054;28;20415;-52
2024/03/22 10:59:04;;;;;;;4.97;0.63;;;;;;;13.50;60.03;100973.63;15302302;28;20047;-52
2024/03/22 11:06:42;;;;;;;0.55;0.15;;;;;;;13.20;61.46;100973.50;15298224;28;20122;-52
2024/03/22 11:14:15;;;;;;;0.10;0.10;;;;;;;12.97;62.12;100961.47;15297641;28;20055;-51
2024/03/22 11:21:51;;;;;;;0.68;0.30;;;;;;;13.11;61.83;100956.78;15300604;28;20130;-50
2024/03/22 11:29:26;;;;;;;0.25;0.25;;;;;;;13.12;62.15;100941.44;15278792;29;20048;-54
2024/03/22 11:37:02;;;;;;;0.55;0.55;;;;;;;13.21;63.60;100945.50;15296129;28;20078;-51
2024/03/22 11:44:38;;;;;;;0.82;0.77;;;;;;;13.09;62.47;100941.88;15295267;29;20047;-53
2024/03/22 11:52:17;;;;;;;1.48;0.52;;;;;;;12.91;63.40;100921.09;15299703;28;20040;-55
2024/03/22 11:59:51;;;;;;;0.38;0.38;;;;;;;13.07;64.33;100920.53;15291566;28;20163;-53
2024/03/22 12:07:26;;;;;;;2.05;0.80;;;;;;;12.89;70.05;100915.94;15297744;28;20106;-53
2024/03/22 12:15:01;;;;;;;1.65;0.75;;;;;;;12.87;70.91;100898.34;15298711;28;20059;-54
2024/03/22 12:22:36;;;;;;;0.25;0.25;;;;;;;13.42;68.37;100893.84;15296078;28;20062;-54
2024/03/22 12:30:11;;;;;;;0.00;0.00;;;;;;;12.54;74.90;100882.47;15292184;28;20401;-52
2024/03/22 12:37:46;;;;;;;1.20;1.13;;;;;;;12.72;75.81;100874.44;15293119;28;20036;-56
2024/03/22 12:45:20;;;;;;;1.50;1.02;;;;;;;12.23;78.83;100874.22;15296839;28;20065;-51
2024/03/22 12:52:55;;;;;;;1.77;1.25;;;;;;;12.45;78.79;100863.91;15295016;28;20241;-50
2024/03/22 13:00:28;;;;;;;0.65;0.65;;;;;;;11.81;81.62;100847.97;15297026;28;20501;-53
2024/03/22 13:08:04;;;;;;;0.73;0.63;;;;;;;12.18;78.53;100841.75;15296723;28;20102;-54
2024/03/22 13:15:39;;;;;;;1.25;1.17;;;;;;;12.46;80.19;100821.66;15295887;28;20044;-51
2024/03/22 13:23:15;;;;;;;0.20;0.20;;;;;;;12.29;80.78;100807.09;15287276;28;20114;-51
2024/03/22 13:31:00;;;;;;;0.28;0.28;;;;;;;12.74;78.45;100796.94;15296562;28;20346;-55
2024/03/22 13:38:37;;;;;;;1.77;1.08;;;;;;;12.11;78.11;100795.22;15293001;28;20063;-49
2024/03/22 13:46:14;;;;;;;4.18;0.25;;;;;;;11.98;80.54;100789.94;15301684;28;20048;-54
2024/03/22 13:53:49;;;;;;;0.95;0.95;;;;;;;12.15;79.33;100774.09;15296782;28;20086;-52
2024/03/22 14:01:23;;;;;;;0.43;0.43;;;;;;;12.36;79.56;100754.88;15304536;29;20449;-56
2024/03/22 14:09:00;;;;;;;0.22;0.22;;;;;;;12.28;79.04;100749.75;15303417;28;20040;-54
2024/03/22 14:16:35;;;;;;;0.35;0.35;;;;;;;12.32;78.15;100744.75;15305772;28;20272;-49
2024/03/22 14:24:10;;;;;;;4.03;1.90;;;;;;;12.09;79.35;100732.75;15305232;28;20059;-51
2024/03/22 14:31:45;;;;;;;21.38;1.45;;;;;;;11.87;80.79;100736.84;15301421;28;20054;-49
2024/03/22 14:39:21;;;;;;;0.85;0.85;;;;;;;12.02;80.77;100729.28;15300089;28;20424;-51
2024/03/22 14:46:54;;;;;;;0.17;0.17;;;;;;;12.23;80.16;100722.69;15294739;28;20103;-55
2024/03/22 14:54:29;;;;;;;5.05;1.67;;;;;;;11.81;81.78;100719.72;15296509;28;20044;-53
2024/03/22 15:02:04;;;;;;;0.20;0.20;;;;;;;11.97;80.28;100711.09;15302321;28;20052;-49
2024/03/22 15:09:40;;;;;;;0.50;0.50;;;;;;;12.04;82.31;100702.19;15303368;28;20047;-51
2024/03/22 15:17:16;;;;;;;4.55;2.45;;;;;;;12.11;82.26;100698.34;15297345;28;20044;-55
2024/03/22 15:24:52;;;;;;;0.30;0.30;;;;;;;11.74;82.82;100681.28;15289220;28;20216;-48
2024/03/22 15:32:28;;;;;;;1.48;0.95;;;;;;;11.63;82.13;100677.44;15301868;28;20089;-49
2024/03/22 15:40:04;;;;;;;0.40;0.40;;;;;;;11.75;81.65;100681.06;15299785;28;20084;-52
2024/03/22 15:47:40;;;;;;;3.00;1.63;;;;;;;11.64;81.33;100673.69;15300981;28;20071;-51
2024/03/22 15:55:16;;;;;;;0.45;0.45;;;;;;;11.90;80.59;100670.00;15301451;28;20125;-52
2024/03/22 16:02:50;;;;;;;1.25;0.88;;;;;;;11.43;83.48;100669.53;15300998;28;20147;-51
2024/03/22 16:10:26;;;;;;;0.75;0.75;;;;;;;11.48;82.94;100668.88;15298751;28;20339;-50
2024/03/22 16:17:59;;;;;;;1.50;0.55;;;;;;;11.41;83.52;100666.22;15300104;28;20079;-54
2024/03/22 16:25:36;;;;;;;1.42;1.33;;;;;;;11.39;83.45;100667.50;15298666;28;20057;-52
2024/03/22 16:33:12;;;;;;;4.22;0.50;;;;;;;11.39;83.53;100652.19;15300380;28;20051;-51
2024/03/22 16:40:47;;;;;;;1.60;1.00;;;;;;;11.46;83.07;100661.00;15262780;28;20074;-51
2024/03/22 16:48:22;;;;;;;1.23;0.68;;;;;;;11.63;82.40;100660.47;15281470;28;20039;-51
2024/03/22 16:55:57;;;;;;;0.10;0.10;;;;;;;11.27;83.81;100656.59;15265667;28;20051;-50
2024/03/22 17:03:30;;;;;;;0.43;0.43;;;;;;;11.43;83.76;100649.88;15298476;28;20129;-51
2024/03/22 17:11:06;;;;;;;3.17;0.93;;;;;;;11.38;83.98;100660.47;15298025;28;20520;-48
2024/03/22 17:18:40;;;;;;;0.43;0.43;;;;;;;11.16;85.44;100647.38;15297015;28;20424;-51
2024/03/22 17:26:16;;;;;;;0.98;0.50;;;;;;;11.04;85.58;100641.03;15296646;29;20063;-52
2024/03/22 17:33:50;;;;;;;3.78;1.85;;;;;;;11.23;84.54;100644.63;15293282;28;20428;-51
2024/03/22 17:41:27;;;;;;;0.40;0.40;;;;;;;11.16;86.47;100644.69;15282042;28;20461;-49
2024/03/22 17:49:02;;;;;;;2.63;1.70;;;;;;;11.29;84.94;100624.97;15293886;28;20047;-53
2024/03/22 17:56:38;;;;;;;1.00;1.00;;;;;;;11.45;85.24;100624.44;15292992;28;20074;-50
2024/03/22 18:04:12;;;;;;;0.68;0.68;;;;;;;11.57;84.61;100624.56;15278115;28;20160;-51
2024/03/22 18:11:47;;;;;;;0.63;0.52;;;;;;;11.23;86.18;100625.81;15295530;28;20059;-52
2024/03/22 18:19:21;;;;;;;0.75;0.75;;;;;;;10.94;87.80;100629.94;15279504;28;20497;-51
2024/03/22 18:26:57;;;;;;;0.63;0.60;;;;;;;11.49;86.28;100612.19;15292316;28;20119;-51
2024/03/22 18:34:30;;;;;;;1.85;0.75;;;;;;;11.34;87.52;100621.63;15293217;28;20389;-48
2024/03/22 18:42:06;;;;;;;1.55;1.08;;;;;;;11.46;86.07;100612.63;15293846;28;20040;-49
2024/03/22 18:49:42;;;;;;;1.80;1.33;;;;;;;10.83;88.99;100609.16;15303232;28;20043;-50
2024/03/22 18:57:19;;;;;;;0.73;0.73;;;;;;;10.88;89.99;100590.53;15290786;28;20385;-48
2024/03/22 19:04:52;;;;;;;3.90;1.90;;;;;;;11.27;88.02;100591.28;15301331;28;20129;-50
2024/03/22 19:12:27;;;;;;;0.60;0.60;;;;;;;11.06;88.58;100584.44;15302239;28;20054;-52
2024/03/22 19:20:01;;;;;;;3.70;3.25;;;;;;;11.41;87.87;100590.97;15298139;28;20052;-49
2024/03/22 19:27:36;;;;;;;3.50;0.82;;;;;;;11.26;87.16;100581.59;15267280;28;20052;-49
2024/03/22 19:35:11;;;;;;;1.08;1.00;;;;;;;11.20;87.15;100573.38;15252137;28;20388;-51
2024/03/22 19:42:47;;;;;;;1.50;1.35;;;;;;;11.03;88.65;100569.56;15298806;28;20047;-55
2024/03/22 19:50:21;;;;;;;0.57;0.57;;;;;;;11.26;87.56;100563.59;15296885;28;20131;-47
2024/03/22 19:57:56;;;;;;;0.82;0.82;;;;;;;10.85;89.30;100562.22;15297734;28;20055;-48
2024/03/22 20:05:29;;;;;;;0.95;0.95;;;;;;;11.10;88.42;100559.59;15299530;28;20047;-51
2024/03/22 20:13:06;;;;;;;0.30;0.28;;;;;;;10.39;90.13;100541.84;15282428;28;20400;-49
2024/03/22 20:20:40;;;;;;;3.83;1.33;;;;;;;10.81;90.07;100555.66;15293180;28;20125;-51
2024/03/22 20:28:15;;;;;;;1.95;0.73;;;;;;;10.73;89.87;100547.88;15293843;28;20045;-52
2024/03/22 20:35:50;;;;;;;0.60;0.60;;;;;;;10.28;90.13;100550.56;15290525;28;20338;-55
2024/03/22 20:43:26;;;;;;;1.77;1.65;;;;;;;10.34;90.42;100546.22;15280654;28;20131;-52
2024/03/22 20:51:04;;;;;;;0.63;0.63;;;;;;;10.62;88.74;100535.94;15293754;28;20126;-51
2024/03/22 20:58:42;;;;;;;0.98;0.98;;;;;;;10.18;89.93;100529.53;15295079;28;20400;-49
2024/03/22 21:06:19;;;;;;;1.08;0.98;;;;;;;10.16;89.69;100531.59;15296991;28;20413;-56
2024/03/22 21:13:56;;;;;;;1.23;1.15;;;;;;;10.42;89.36;100524.50;15296457;28;20071;-50
2024/03/22 21:21:34;;;;;;;4.60;1.90;;;;;;;10.07;90.26;100522.16;15283558;28;20456;-52
2024/03/22 21:29:13;;;;;;;0.50;0.50;;;;;;;10.16;89.56;100510.13;15295776;28;20366;-49
2024/03/22 21:36:54;;;;;;;0.30;0.30;;;;;;;10.29;88.69;100501.25;15290638;28;20074;-52
2024/03/22 21:44:32;;;;;;;0.10;0.10;;;;;;;10.58;87.32;100512.44;15295769;28;20044;-50
2024/03/22 21:52:10;;;;;;;0.35;0.35;;;;;;;10.33;88.73;100499.78;15292139;28;20051;-51
2024/03/22 21:59:46;;;;;;;2.05;0.98;;;;;;;10.26;89.47;100484.75;15294408;28;20074;-50
2024/03/22 22:07:23;;;;;;;0.30;0.30;;;;;;;10.01;89.91;100474.72;15304179;28;20051;-53
2024/03/22 22:15:00;;;;;;;0.32;0.32;;;;;;;10.32;88.80;100470.50;15301814;28;20082;-53
2024/03/22 22:22:36;;;;;;;0.43;0.43;;;;;;;10.30;89.05;100464.50;15286114;28;20052;-52
2024/03/22 22:30:13;;;;;;;0.82;0.80;;;;;;;10.13;87.57;100474.91;15301950;28;20047;-53
2024/03/22 22:37:51;;;;;;;0.30;0.30;;;;;;;9.66;85.03;100472.38;15331226;28;20056;-48
2024/03/22 22:45:28;;;;;;;0.00;0.00;;;;;;;9.79;82.77;100474.22;15298046;28;20127;-45
2024/03/22 22:53:05;;;;;;;0.00;0.00;;;;;;;9.65;81.25;100472.56;15298505;28;20078;-46
2024/03/22 23:00:41;;;;;;;0.00;0.00;;;;;;;10.07;80.47;100468.53;15299133;28;20036;-47
2024/03/22 23:08:19;;;;;;;0.52;0.45;;;;;;;9.62;82.91;100455.09;15297292;28;20047;-51
2024/03/22 23:15:55;;;;;;;0.38;0.38;;;;;;;9.71;83.07;100453.81;15294769;28;20134;-49
2024/03/22 23:23:34;;;;;;;0.47;0.47;;;;;;;9.75;81.28;100446.19;15296403;28;20043;-50
2024/03/22 23:31:11;;;;;;;0.20;0.20;;;;;;;9.00;84.19;100439.53;15295296;28;20135;-51
2024/03/22 23:38:47;;;;;;;0.00;0.00;;;;;;;9.27;81.91;100446.50;15291156;28;20111;-50
2024/03/22 23:46:23;;;;;;;0.25;0.15;;;;;;;9.36;82.00;100460.50;15297386;28;20075;-46
2024/03/22 23:54:00;;;;;;;0.17;0.17;;;;;;;8.82;84.63;100443.69;15290376;28;20040;-48
